Flight Track Log - Related Links

Times and Time Zones

All times are in EDT time to prevent confusion due to time zone crossing. See the EJA831 flight status page for this flight to view local times or setup timezone preferences in your user account.

Time Position Orientation Groundspeed Altitude Reporting Facility
EDT Latitude Longitude Course Direction KTS MPH feet Rate Location/Type
Thu 12:16:10 PM 33.5667 -117.8833 180° South 259 298 5,000  Level Southern California TRACON
Thu 12:16:27 PM 33.5458 -117.8828 179° South 252 290 5,700 1,671 Climbing Los Angeles Center
Thu 12:17:29 PM 33.5197 -117.8089 113° Southeast 262 302 7,200 2,129 Climbing Los Angeles Center
Thu 12:18:31 PM 33.5381 -117.7225 76° East 267 307 10,100 2,323 Climbing Los Angeles Center
Thu 12:19:33 PM 33.5575 -117.6233 77° East 294 338 12,000 1,887 Climbing Los Angeles Center
Thu 12:20:00 PM 33.5387 -117.5415 66° East  Level FlightAware Approximate
Thu 12:20:35 PM 33.5669 -117.5144 84° East 325 374 14,000  Level Los Angeles Center
Thu 12:21:37 PM 33.5719 -117.3997 87° East 343 395 16,000 2,177 Climbing Los Angeles Center
Thu 12:22:39 PM 33.5792 -117.2592 86° East 353 406 18,500 2,112 Climbing Los Angeles Center
Thu 12:23:42 PM 33.5842 -117.1414 87° East 358 412 20,400 1,920 Climbing Los Angeles Center
Thu 12:24:44 PM 33.5906 -117.0169 86° East 366 421 22,500 1,984 Climbing Los Angeles Center
Thu 12:25:46 PM 33.5947 -116.8931 88° East 372 428 24,500 1,790 Climbing Los Angeles Center
Thu 12:26:48 PM 33.6022 -116.7667 86° East 376 433 26,200 1,548 Climbing Los Angeles Center
Thu 12:27:50 PM 33.6106 -116.6322 86° East 388 447 27,700 1,456 Climbing Los Angeles Center
Thu 12:29:04 PM 33.6161 -116.4672 88° East 409 471 29,500 1,401 Climbing Los Angeles Center
Thu 12:30:07 PM 33.6233 -116.2997 87° East 416 479 30,900 720 Climbing Los Angeles Center
Thu 12:31:09 PM 33.6286 -116.1492 88° East 442 509 31,000 48 Climbing Los Angeles Center
Thu 12:32:11 PM 33.6244 -115.9919 92° East 465 535 31,000  Level Los Angeles Center
Thu 12:33:13 PM 33.6214 -115.8364 91° East 466 536 31,000  Level Los Angeles Center
Thu 12:34:15 PM 33.6189 -115.6861 91° East 451 519 31,000  Level Los Angeles Center
Thu 12:35:17 PM 33.6144 -115.5186 92° East 421 484 31,000  Level Los Angeles Center
Thu 12:36:19 PM 33.6117 -115.3847 91° East 404 465 31,000  Level Los Angeles Center
Thu 12:37:22 PM 33.6072 -115.2403 92° East 429 494 31,000  Level Los Angeles Center
Thu 12:38:24 PM 33.6028 -115.0872 92° East 456 525 31,000  Level Los Angeles Center
Thu 12:39:26 PM 33.5992 -114.9325 92° East 464 534 31,000  Level Los Angeles Center
Thu 12:40:29 PM 33.5950 -114.7769 92° East 466 536 31,000  Level Los Angeles Center
Thu 12:41:30 PM 33.5792 -114.5911 96° East 468 539 31,000  Level Los Angeles Center
Thu 12:42:32 PM 33.5661 -114.4350 96° East 470 541 31,000  Level Los Angeles Center
Thu 12:43:34 PM 33.5519 -114.2817 96° East 465 535 31,000  Level Los Angeles Center
Thu 12:44:36 PM 33.5386 -114.1264 96° East 467 537 31,000  Level Los Angeles Center
Thu 12:45:24 PM 33.5236 -113.9878 97° East 469 540 31,000  Level Albuquerque Center
Thu 12:46:26 PM 33.4669 -113.8467 116° Southeast 471 542 31,000  Level Albuquerque Center
Thu 12:47:28 PM 33.4072 -113.7089 117° Southeast 469 540 31,000  Level Albuquerque Center
Thu 12:48:30 PM 33.3486 -113.5703 117° Southeast 467 537 31,000  Level Albuquerque Center
Thu 12:49:32 PM 33.2881 -113.4303 117° Southeast 471 542 31,000  Level Albuquerque Center
Thu 12:50:34 PM 33.2281 -113.2917 117° Southeast 471 542 31,000 -339 Level Albuquerque Center
Thu 12:51:36 PM 33.1556 -113.1256 117° Southeast 470 541 30,300 -1,355 Descending Albuquerque Center
Thu 12:52:38 PM 33.0958 -112.9892 118° Southeast 466 536 28,200 -1,984 Descending Albuquerque Center
Thu 12:53:40 PM 33.0378 -112.8564 118° Southeast 456 525 26,200 -1,056 Descending Albuquerque Center
Thu 12:54:43 PM 32.9806 -112.7269 118° Southeast 446 513 26,000 -96 Descending Albuquerque Center
Thu 12:55:45 PM 32.9272 -112.5933 115° Southeast 445 512 26,000  Level Albuquerque Center
Thu 12:56:47 PM 32.8761 -112.4569 114° Southeast 448 516 26,000 -48 Level Albuquerque Center
Thu 12:57:49 PM 32.8264 -112.3194 113° Southeast 451 519 25,900 -1,500 Descending Albuquerque Center
Thu 12:58:51 PM 32.7739 -112.1792 114° Southeast 442 509 22,900 -2,903 Descending Albuquerque Center
Thu 12:59:53 PM 32.7275 -112.0550 114° Southeast 424 488 19,900 -3,242 Descending Albuquerque Center
Thu 01:00:55 PM 32.6744 -111.9131 114° Southeast 400 460 16,200 -3,242 Descending Albuquerque Center
Thu 01:01:57 PM 32.6358 -111.8056 113° Southeast 366 421 13,200 -2,855 Descending Albuquerque Center
Thu 01:02:59 PM 32.5978 -111.7108 115° Southeast 333 383 10,300 -1,887 Descending Albuquerque Center
Thu 01:04:01 PM 32.5656 -111.6239 114° Southeast 296 341 9,300 -720 Descending Albuquerque Center
Thu 01:04:39 PM 32.5394 -111.5644 118° Southeast 287 330 9,100 -387 Descending Albuquerque Center
Thu 01:05:03 PM 32.5325 -111.5392 108° East 285 328 8,900 -1,574 Descending Albuquerque Center
Thu 01:05:40 PM 32.5075 -111.4744 115° Southeast 279 321 7,500 -1,548 Descending Albuquerque Center
Thu 01:06:05 PM 32.5031 -111.4564 106° East 279 321 7,300 -1,300 Descending Albuquerque Center
Thu 01:06:40 PM 32.4869 -111.4014 109° East 241 277 6,200 -1,355 Descending Albuquerque Center
Thu 01:07:07 PM 32.4828 -111.3722 100° East 247 284 5,900 -1,082 Descending Albuquerque Center
Thu 01:07:41 PM 32.4750 -111.3392 106° East 204 235 5,100 -1,065 Descending Albuquerque Center
Thu 01:08:09 PM 32.4706 -111.3067 99° East 218 251 4,800 -1,377 Descending Albuquerque Center
Thu 01:08:42 PM 32.4583 -111.2856 124° Southeast 178 205 3,700 -1,645 Descending Albuquerque Center
Thu 01:09:11 PM 32.4550 -111.2614 99° East 193 222 3,100 -1,082 Descending Albuquerque Center
Thu 01:09:43 PM 32.4389 -111.2503 150° Southeast 136 157 2,600 -581 Descending Albuquerque Center
Thu 01:10:13 PM 32.4319 -111.2200 105° East 174 200 2,500 -200 Descending Albuquerque Center
Thu 01:12:00 PM 32.4096 -111.2184 115° Southeast  Level Estimated
Thu 01:19:00 PM 32.4096 -111.2184 115° Southeast  Level Estimated

Login

Don't have an account? Register now (free) for customized features, flight alerts, and more!